Time;durP1;ratioP1;P1;durP2;ratioP2;P2;SDS_P1;SDS_P2;PMS_P1;PMS_P2;Temp;Humidity;BMP_temperature;BMP_pressure;BME280_temperature;BME280_humidity;BME280_pressure;Samples;Min_cycle;Max_cycle;Signal;HPM_P1;HPM_P2
2023/12/01 00:01:54;;;;;;;72.18;12.93;;;6.50;99.90;;;;;;4988409;28;20046;-67
2023/12/01 00:04:19;;;;;;;60.17;12.23;;;6.50;99.90;;;;;;4987231;28;20030;-68
2023/12/01 00:06:45;;;;;;;72.47;12.55;;;6.50;99.90;;;;;;4988481;28;20051;-68
2023/12/01 00:09:10;;;;;;;67.65;12.32;;;6.50;99.90;;;;;;4988421;28;20027;-67
2023/12/01 00:11:36;;;;;;;74.63;12.65;;;6.50;99.90;;;;;;4971060;28;20062;-68
2023/12/01 00:14:01;;;;;;;65.75;12.27;;;6.50;99.90;;;;;;4970867;28;20027;-68
2023/12/01 00:16:27;;;;;;;48.45;11.60;;;6.50;99.90;;;;;;4970813;28;20026;-68
2023/12/01 00:18:52;;;;;;;49.20;10.75;;;6.40;99.90;;;;;;4970073;28;20039;-67
2023/12/01 00:21:18;;;;;;;53.38;11.10;;;6.40;99.90;;;;;;4970685;28;20095;-67
2023/12/01 00:23:44;;;;;;;64.85;11.43;;;6.40;99.90;;;;;;4986796;28;20027;-68
2023/12/01 00:26:09;;;;;;;50.13;10.07;;;6.40;99.90;;;;;;4987980;28;20058;-68
2023/12/01 00:28:35;;;;;;;52.67;11.23;;;6.40;99.90;;;;;;4970627;28;20031;-68
2023/12/01 00:31:01;;;;;;;57.78;12.80;;;6.40;99.90;;;;;;4987914;28;20360;-68
2023/12/01 00:33:26;;;;;;;48.53;10.68;;;6.40;99.90;;;;;;4986703;28;20035;-68
2023/12/01 00:35:52;;;;;;;54.20;10.70;;;6.40;99.90;;;;;;4986673;28;20031;-68
2023/12/01 00:38:19;;;;;;;54.67;9.75;;;6.40;99.90;;;;;;4986585;28;20035;-68
2023/12/01 00:40:44;;;;;;;47.50;11.38;;;6.30;99.90;;;;;;4986827;28;20038;-68
2023/12/01 00:43:10;;;;;;;53.80;10.05;;;6.40;99.90;;;;;;4986415;28;20031;-68
2023/12/01 00:45:36;;;;;;;44.10;10.43;;;6.40;99.90;;;;;;4986512;28;20046;-68
2023/12/01 00:48:01;;;;;;;47.13;9.77;;;6.30;99.90;;;;;;4986471;28;20026;-68
2023/12/01 00:50:27;;;;;;;48.72;10.20;;;6.30;99.90;;;;;;4986791;28;20027;-68
2023/12/01 00:52:53;;;;;;;59.00;10.55;;;6.30;99.90;;;;;;4988318;28;20091;-68
2023/12/01 00:55:19;;;;;;;53.83;10.30;;;6.30;99.90;;;;;;4970844;28;20050;-68
2023/12/01 00:57:45;;;;;;;55.25;10.15;;;6.30;99.90;;;;;;4986191;28;20037;-68
2023/12/01 01:00:10;;;;;;;53.08;10.27;;;6.30;99.90;;;;;;4970038;28;20062;-68
2023/12/01 01:02:36;;;;;;;43.42;9.93;;;6.30;99.90;;;;;;4987479;28;20035;-67
2023/12/01 01:05:03;;;;;;;45.00;9.75;;;6.30;99.90;;;;;;4986164;28;20031;-68
2023/12/01 01:07:28;;;;;;;42.17;9.95;;;6.30;99.90;;;;;;4986161;28;20027;-67
2023/12/01 01:09:54;;;;;;;44.03;9.77;;;6.30;99.90;;;;;;4986123;28;20053;-67
2023/12/01 01:12:20;;;;;;;51.28;10.32;;;6.30;99.90;;;;;;4986192;28;20059;-67
2023/12/01 01:14:46;;;;;;;42.78;8.80;;;6.30;99.90;;;;;;4986162;28;20030;-67
2023/12/01 01:17:12;;;;;;;37.47;9.65;;;6.30;99.90;;;;;;4986119;28;20058;-67
2023/12/01 01:19:37;;;;;;;40.53;8.73;;;6.30;99.90;;;;;;4986006;28;20498;-67
2023/12/01 01:22:03;;;;;;;32.22;8.82;;;6.20;99.90;;;;;;4969844;28;20034;-67
2023/12/01 01:24:28;;;;;;;43.65;8.50;;;6.20;99.90;;;;;;4987319;28;20444;-67
2023/12/01 01:26:54;;;;;;;35.45;8.27;;;6.20;99.90;;;;;;4985883;28;20025;-67
2023/12/01 01:29:20;;;;;;;33.00;7.82;;;6.20;99.90;;;;;;4987450;28;20090;-67
2023/12/01 01:31:45;;;;;;;22.23;7.65;;;6.20;99.90;;;;;;4990234;28;20031;-67
2023/12/01 01:34:11;;;;;;;34.20;8.75;;;6.20;99.90;;;;;;4989842;28;20031;-67
2023/12/01 01:36:36;;;;;;;35.45;8.73;;;6.20;99.90;;;;;;4989704;28;20034;-67
2023/12/01 01:39:02;;;;;;;33.83;8.10;;;6.20;99.90;;;;;;4989811;28;20042;-67
2023/12/01 01:41:28;;;;;;;36.28;8.55;;;6.20;99.90;;;;;;4991052;28;20057;-67
2023/12/01 01:43:53;;;;;;;31.02;8.38;;;6.20;99.90;;;;;;4989903;28;20030;-67
2023/12/01 01:46:19;;;;;;;37.85;8.48;;;6.20;99.90;;;;;;4990922;28;20027;-67
2023/12/01 01:48:45;;;;;;;38.22;8.82;;;6.20;99.90;;;;;;4989911;28;20088;-67
2023/12/01 01:51:10;;;;;;;30.20;7.45;;;6.20;99.90;;;;;;4990993;28;20023;-67
2023/12/01 01:53:41;;;;;;;37.28;7.72;;;6.20;99.90;;;;;;4973605;28;20479;-67
2023/12/01 01:56:07;;;;;;;37.97;8.25;;;6.20;99.90;;;;;;4989588;28;20035;-67
2023/12/01 01:58:33;;;;;;;27.23;8.05;;;6.10;99.90;;;;;;4973645;28;20058;-67
2023/12/01 02:00:59;;;;;;;29.58;7.57;;;6.10;99.90;;;;;;4973239;28;20035;-67
2023/12/01 02:03:25;;;;;;;31.27;7.47;;;6.10;99.90;;;;;;4989440;28;20058;-67
2023/12/01 02:05:50;;;;;;;28.15;7.25;;;6.20;99.90;;;;;;4989631;28;20078;-67
2023/12/01 02:08:34;;;;;;;34.53;8.10;;;6.10;99.90;;;;;;4989416;28;20090;-67
2023/12/01 02:11:00;;;;;;;32.58;7.57;;;6.20;99.90;;;;;;4989485;28;20055;-68
2023/12/01 02:13:25;;;;;;;29.92;8.20;;;6.10;99.90;;;;;;4989391;28;20031;-68
2023/12/01 02:15:52;;;;;;;36.45;8.25;;;6.10;99.90;;;;;;4989238;28;20034;-67
2023/12/01 02:18:24;;;;;;;26.60;7.32;;;6.10;99.90;;;;;;4989294;28;20110;-68
2023/12/01 02:20:53;;;;;;;32.95;7.35;;;6.10;99.90;;;;;;4990234;28;20086;-68
2023/12/01 02:23:19;;;;;;;26.77;7.72;;;6.10;99.90;;;;;;4988997;28;20042;-67
2023/12/01 02:25:45;;;;;;;28.20;7.03;;;6.10;99.90;;;;;;4972812;28;20031;-67
2023/12/01 02:28:11;;;;;;;27.17;7.30;;;6.10;99.90;;;;;;4989205;28;20107;-67
2023/12/01 02:30:37;;;;;;;37.13;8.38;;;6.10;99.90;;;;;;4989117;28;20027;-68
2023/12/01 02:33:02;;;;;;;26.50;6.63;;;6.10;99.90;;;;;;4990241;28;20041;-68
2023/12/01 02:35:31;;;;;;;21.88;7.63;;;6.10;99.90;;;;;;4989070;28;20114;-68
2023/12/01 02:37:57;;;;;;;26.60;7.18;;;6.10;99.90;;;;;;4988683;28;20089;-68
2023/12/01 02:40:23;;;;;;;24.73;8.05;;;6.10;99.90;;;;;;4988722;28;20042;-68
2023/12/01 02:42:49;;;;;;;27.58;8.05;;;6.10;99.90;;;;;;4988026;28;20034;-68
2023/12/01 02:45:15;;;;;;;25.23;7.70;;;6.10;99.90;;;;;;4988873;28;20026;-66
2023/12/01 02:47:40;;;;;;;26.67;7.75;;;6.10;99.90;;;;;;4990664;28;20065;-68
2023/12/01 02:50:09;;;;;;;33.10;8.13;;;6.10;99.90;;;;;;4992508;28;20027;-67
2023/12/01 02:52:36;;;;;;;21.42;6.93;;;6.10;99.90;;;;;;5004993;28;20030;-68
2023/12/01 02:55:02;;;;;;;26.95;7.65;;;6.10;99.90;;;;;;4972799;28;20035;-68
2023/12/01 02:57:28;;;;;;;23.35;7.82;;;6.10;99.90;;;;;;4989916;28;20035;-68
2023/12/01 02:59:53;;;;;;;32.22;7.55;;;6.10;99.90;;;;;;4989818;28;20031;-67
2023/12/01 03:02:19;;;;;;;17.95;6.88;;;6.10;99.90;;;;;;4988316;28;20038;-68
2023/12/01 03:04:44;;;;;;;27.85;7.68;;;6.20;99.90;;;;;;4989481;28;20058;-68
2023/12/01 03:07:10;;;;;;;20.05;7.35;;;6.10;99.90;;;;;;4989484;28;20023;-68
2023/12/01 03:09:36;;;;;;;23.30;8.07;;;6.10;99.90;;;;;;4988752;28;20479;-68
2023/12/01 03:12:03;;;;;;;25.67;8.48;;;6.10;99.90;;;;;;4988563;28;20041;-67
2023/12/01 03:14:29;;;;;;;20.65;7.82;;;6.10;99.90;;;;;;4972421;28;20066;-68
2023/12/01 03:16:56;;;;;;;26.63;7.70;;;6.10;99.90;;;;;;4987941;28;20031;-67
2023/12/01 03:19:22;;;;;;;26.98;8.75;;;6.10;99.90;;;;;;4987927;28;20166;-67
2023/12/01 03:21:48;;;;;;;23.73;7.63;;;6.10;99.90;;;;;;4989211;28;20030;-67
2023/12/01 03:24:14;;;;;;;17.00;7.00;;;6.10;99.90;;;;;;4971770;28;20038;-67
2023/12/01 03:26:39;;;;;;;18.67;7.35;;;6.10;99.90;;;;;;4987891;28;20106;-68
2023/12/01 03:29:05;;;;;;;21.92;7.05;;;6.10;99.90;;;;;;4989215;28;20395;-68
2023/12/01 03:31:30;;;;;;;19.83;6.75;;;6.10;99.90;;;;;;4987811;28;20019;-68
2023/12/01 03:33:56;;;;;;;22.55;7.68;;;6.10;99.90;;;;;;4987885;28;20037;-68
2023/12/01 03:36:21;;;;;;;23.63;7.25;;;6.10;99.90;;;;;;4987613;28;20030;-68
2023/12/01 03:38:47;;;;;;;21.35;7.07;;;6.10;99.90;;;;;;4987680;28;20046;-69
2023/12/01 03:41:13;;;;;;;19.42;7.43;;;6.10;99.90;;;;;;4987668;28;20068;-67
2023/12/01 03:43:39;;;;;;;24.52;7.88;;;6.10;99.90;;;;;;4987587;28;20162;-69
2023/12/01 03:46:05;;;;;;;24.38;7.07;;;6.10;99.90;;;;;;4971488;28;20019;-69
2023/12/01 03:48:33;;;;;;;19.73;7.03;;;6.10;99.90;;;;;;4988985;28;20034;-70
2023/12/01 03:50:59;;;;;;;17.52;6.93;;;6.10;99.90;;;;;;4988006;28;20038;-70
2023/12/01 03:53:25;;;;;;;21.10;8.02;;;6.10;99.90;;;;;;4970362;28;20031;-70
2023/12/01 03:55:51;;;;;;;15.93;7.53;;;6.10;99.90;;;;;;4987419;28;20139;-70
2023/12/01 03:58:17;;;;;;;18.08;6.82;;;6.10;99.90;;;;;;4987570;28;20133;-70
2023/12/01 04:00:43;;;;;;;22.00;7.13;;;6.10;99.90;;;;;;4987870;28;20027;-70
2023/12/01 04:03:08;;;;;;;23.13;8.27;;;6.10;99.90;;;;;;4988604;28;20027;-70
2023/12/01 04:05:34;;;;;;;19.50;6.90;;;6.10;99.90;;;;;;4987526;28;20026;-70
2023/12/01 04:07:59;;;;;;;22.35;7.55;;;6.10;99.90;;;;;;4988566;28;20033;-70
2023/12/01 04:10:25;;;;;;;17.63;6.57;;;6.10;99.90;;;;;;4987084;28;20023;-70
2023/12/01 04:12:51;;;;;;;18.42;7.10;;;6.10;99.90;;;;;;4987028;28;20054;-71
2023/12/01 04:15:18;;;;;;;20.70;6.93;;;6.10;99.90;;;;;;4988450;28;20071;-70
2023/12/01 04:17:44;;;;;;;17.95;6.70;;;6.10;99.90;;;;;;4987101;28;20126;-71
2023/12/01 04:20:27;;;;;;;22.13;7.32;;;6.10;99.90;;;;;;4988329;28;20035;-71
2023/12/01 04:22:57;;;;;;;21.63;6.82;;;6.10;99.90;;;;;;4987192;28;20035;-71
2023/12/01 04:25:22;;;;;;;19.25;6.65;;;6.10;99.90;;;;;;4987192;28;20027;-72
2023/12/01 04:27:50;;;;;;;20.48;6.25;;;6.10;99.90;;;;;;4988154;28;20066;-71
2023/12/01 04:30:16;;;;;;;16.38;6.47;;;6.10;99.90;;;;;;4986851;28;20023;-73
2023/12/01 04:32:54;;;;;;;16.48;6.80;;;6.10;99.90;;;;;;4986645;28;20030;-51
2023/12/01 04:35:25;;;;;;;16.92;6.13;;;6.10;99.90;;;;;;4986676;28;20031;-51
2023/12/01 04:37:51;;;;;;;13.18;5.55;;;6.00;99.90;;;;;;4986535;28;20051;-51
2023/12/01 04:40:16;;;;;;;16.02;6.43;;;6.00;99.90;;;;;;4986799;28;20050;-51
2023/12/01 04:42:46;;;;;;;11.68;6.10;;;6.00;99.90;;;;;;4986931;28;20027;-51
2023/12/01 04:45:16;;;;;;;14.00;5.78;;;6.00;99.90;;;;;;4973236;28;20066;-50
2023/12/01 04:47:42;;;;;;;14.48;6.18;;;6.00;99.90;;;;;;4968522;29;20034;-51
2023/12/01 04:50:14;;;;;;;21.27;6.50;;;6.00;99.90;;;;;;4967135;28;20023;-50
2023/12/01 04:52:47;;;;;;;19.67;7.35;;;6.10;99.90;;;;;;4935114;29;20034;-51
2023/12/01 04:55:14;;;;;;;18.73;8.75;;;6.00;99.90;;;;;;4967127;29;20035;-51
2023/12/01 04:57:40;;;;;;;22.48;7.82;;;6.00;99.90;;;;;;4951399;29;20118;-51
2023/12/01 05:00:19;;;;;;;21.17;8.20;;;6.10;99.90;;;;;;4968210;28;20035;-51
2023/12/01 05:03:07;;;;;;;15.82;7.60;;;6.00;99.90;;;;;;4952856;29;20038;-51
2023/12/01 05:05:37;;;;;;;18.02;7.97;;;6.10;99.90;;;;;;4966728;28;20042;-50
2023/12/01 05:08:04;;;;;;;15.65;7.53;;;6.10;99.90;;;;;;4951141;29;20091;-50
2023/12/01 05:10:31;;;;;;;12.63;6.90;;;6.10;99.90;;;;;;4951106;29;20020;-51
2023/12/01 05:12:58;;;;;;;12.90;6.47;;;6.10;99.90;;;;;;4966896;29;20031;-50
2023/12/01 05:15:25;;;;;;;13.95;6.10;;;6.10;99.90;;;;;;4950927;29;20099;-51
2023/12/01 05:18:06;;;;;;;18.05;6.68;;;6.10;99.90;;;;;;4934902;29;20083;-51
2023/12/01 05:20:32;;;;;;;12.63;6.82;;;6.00;99.90;;;;;;4966886;29;20059;-51
2023/12/01 05:22:59;;;;;;;17.65;7.22;;;6.10;99.90;;;;;;4950847;29;20027;-50
2023/12/01 05:25:32;;;;;;;15.48;6.28;;;6.10;99.90;;;;;;4966776;29;20024;-51
2023/12/01 05:27:58;;;;;;;12.88;6.10;;;6.10;99.90;;;;;;4951479;29;20047;-50
2023/12/01 05:30:27;;;;;;;10.60;6.50;;;6.10;99.90;;;;;;4950491;29;20055;-51
2023/12/01 05:32:53;;;;;;;15.20;6.28;;;6.10;99.90;;;;;;4966601;29;20039;-51
2023/12/01 05:35:19;;;;;;;17.50;6.30;;;6.10;99.90;;;;;;4950669;29;20040;-50
2023/12/01 05:37:50;;;;;;;23.95;6.70;;;6.10;99.90;;;;;;4967726;28;20039;-50
2023/12/01 05:40:22;;;;;;;26.15;7.40;;;6.10;99.90;;;;;;4966708;29;20034;-50
2023/12/01 05:42:49;;;;;;;23.73;6.72;;;6.10;99.90;;;;;;4950838;29;20108;-51
2023/12/01 05:45:15;;;;;;;44.40;8.55;;;6.10;99.90;;;;;;4950769;29;20035;-50
2023/12/01 05:47:44;;;;;;;26.95;6.72;;;6.10;99.90;;;;;;4950598;29;20115;-50
2023/12/01 05:50:17;;;;;;;26.58;6.80;;;6.10;99.90;;;;;;4966253;29;20023;-51
2023/12/01 05:52:45;;;;;;;28.55;6.55;;;6.10;99.90;;;;;;4966485;28;20094;-51
2023/12/01 05:55:14;;;;;;;46.22;9.02;;;6.10;99.90;;;;;;4965703;29;20034;-51
2023/12/01 05:57:50;;;;;;;29.90;8.07;;;6.10;99.90;;;;;;4966267;28;20032;-51
2023/12/01 06:00:17;;;;;;;54.30;9.70;;;6.10;99.90;;;;;;4967689;29;20031;-51
2023/12/01 06:02:50;;;;;;;46.78;9.32;;;6.10;99.90;;;;;;4967403;29;20031;-51
2023/12/01 06:05:17;;;;;;;30.42;7.50;;;6.10;99.90;;;;;;4966279;28;20037;-50
2023/12/01 06:07:44;;;;;;;34.40;7.65;;;6.10;99.90;;;;;;4966434;29;20083;-51
2023/12/01 06:10:11;;;;;;;58.45;8.35;;;6.10;99.90;;;;;;4966291;29;20027;-50
2023/12/01 06:12:37;;;;;;;48.88;8.35;;;6.10;99.90;;;;;;4950121;29;20035;-51
2023/12/01 06:15:05;;;;;;;38.05;8.32;;;6.10;99.90;;;;;;4966196;28;20031;-50
2023/12/01 06:17:31;;;;;;;30.73;7.25;;;6.10;99.90;;;;;;4969344;28;20059;-50
2023/12/01 06:19:57;;;;;;;50.25;8.55;;;6.10;99.90;;;;;;4953781;29;20114;-51
2023/12/01 06:22:22;;;;;;;54.22;8.32;;;6.10;99.90;;;;;;4969492;28;20031;-51
2023/12/01 06:24:48;;;;;;;29.65;7.28;;;6.10;99.90;;;;;;4969511;29;20024;-51
2023/12/01 06:27:14;;;;;;;33.67;8.00;;;6.10;99.90;;;;;;4953825;29;20027;-51
2023/12/01 06:29:40;;;;;;;44.28;9.10;;;6.10;99.90;;;;;;4970987;28;20438;-51
2023/12/01 06:32:05;;;;;;;33.25;8.60;;;6.10;99.90;;;;;;4937711;29;20028;-50
2023/12/01 06:34:31;;;;;;;32.38;7.40;;;6.10;99.90;;;;;;4970754;28;20031;-51
2023/12/01 06:36:59;;;;;;;32.70;8.80;;;6.10;99.90;;;;;;4970699;28;20035;-51
2023/12/01 06:39:25;;;;;;;45.03;8.65;;;6.10;99.90;;;;;;4970756;28;20035;-51
2023/12/01 06:41:53;;;;;;;32.00;8.02;;;6.10;99.90;;;;;;4953550;29;20035;-50
2023/12/01 06:44:18;;;;;;;30.95;6.82;;;6.20;99.90;;;;;;4953532;29;20039;-50
2023/12/01 06:46:44;;;;;;;36.88;7.40;;;6.10;99.90;;;;;;4969305;29;20030;-51
2023/12/01 06:49:10;;;;;;;37.80;7.55;;;6.10;99.90;;;;;;4953299;29;20034;-51
2023/12/01 06:51:35;;;;;;;32.83;6.70;;;6.10;99.90;;;;;;4969079;28;20030;-51
2023/12/01 06:54:01;;;;;;;25.83;6.85;;;6.10;99.90;;;;;;4969101;29;20027;-51
2023/12/01 06:56:27;;;;;;;30.63;6.57;;;6.10;99.90;;;;;;4969088;28;20098;-50
2023/12/01 06:58:52;;;;;;;27.95;6.97;;;6.10;99.90;;;;;;4969167;28;20035;-51
2023/12/01 07:01:18;;;;;;;31.55;6.47;;;6.10;99.90;;;;;;4964281;28;20515;-51
2023/12/01 07:03:45;;;;;;;23.65;6.82;;;6.10;99.90;;;;;;4975798;28;20054;-51
2023/12/01 07:06:11;;;;;;;22.88;6.50;;;6.10;99.90;;;;;;4985189;28;20027;-50
2023/12/01 07:08:36;;;;;;;28.23;6.63;;;6.10;99.90;;;;;;4984865;28;20034;-50
2023/12/01 07:11:03;;;;;;;25.88;6.47;;;6.10;99.90;;;;;;4977324;28;20055;-51
2023/12/01 07:13:29;;;;;;;19.33;6.35;;;6.10;99.90;;;;;;4984819;28;20031;-51
2023/12/01 07:15:56;;;;;;;20.08;5.97;;;6.10;99.90;;;;;;4979166;28;20476;-51
2023/12/01 07:18:21;;;;;;;20.35;5.45;;;6.10;99.90;;;;;;4981566;28;20023;-51
2023/12/01 07:20:47;;;;;;;23.42;6.15;;;6.10;99.90;;;;;;4966726;29;20086;-51
2023/12/01 07:23:12;;;;;;;20.08;6.10;;;6.10;99.90;;;;;;4967659;29;20031;-51
2023/12/01 07:25:38;;;;;;;25.85;6.72;;;6.10;99.90;;;;;;4981446;28;20031;-51
2023/12/01 07:28:05;;;;;;;19.67;6.78;;;6.10;99.90;;;;;;4979026;28;20083;-49
2023/12/01 07:30:31;;;;;;;26.05;6.03;;;6.10;99.90;;;;;;4958141;28;20030;-51
2023/12/01 07:33:01;;;;;;;27.13;5.75;;;6.10;99.90;;;;;;4979645;28;20067;-51
2023/12/01 07:35:27;;;;;;;18.83;5.82;;;6.10;99.90;;;;;;4967264;28;20027;-51
2023/12/01 07:37:53;;;;;;;23.38;5.63;;;6.10;99.90;;;;;;4976499;28;20035;-51
2023/12/01 07:40:19;;;;;;;21.10;5.53;;;6.10;99.90;;;;;;4964212;28;20027;-50
2023/12/01 07:42:45;;;;;;;19.50;5.63;;;6.10;99.90;;;;;;4968727;28;20035;-51
2023/12/01 07:45:13;;;;;;;23.17;6.10;;;6.10;99.90;;;;;;4968634;28;20031;-50
2023/12/01 07:47:38;;;;;;;24.77;6.85;;;6.10;99.90;;;;;;4959501;29;20032;-51
2023/12/01 07:50:05;;;;;;;23.90;6.32;;;6.10;99.90;;;;;;4976180;28;20035;-50
2023/12/01 07:52:32;;;;;;;21.65;6.55;;;6.10;99.90;;;;;;4962001;28;20098;-51
2023/12/01 07:54:58;;;;;;;26.35;5.93;;;6.10;99.90;;;;;;4964008;28;20035;-50
2023/12/01 07:57:23;;;;;;;16.17;5.45;;;6.20;99.90;;;;;;4979411;28;20039;-51
2023/12/01 07:59:49;;;;;;;17.83;5.72;;;6.10;99.90;;;;;;4962825;28;20067;-50
2023/12/01 08:02:15;;;;;;;33.83;6.45;;;6.10;99.90;;;;;;4965593;29;20031;-50
2023/12/01 08:04:40;;;;;;;20.27;6.47;;;6.10;99.90;;;;;;4961331;28;20313;-50
2023/12/01 08:07:07;;;;;;;33.63;6.43;;;6.10;99.90;;;;;;4976814;28;20395;-50
2023/12/01 08:09:33;;;;;;;39.20;7.28;;;6.10;99.90;;;;;;4943940;29;20167;-50
2023/12/01 08:11:59;;;;;;;31.55;6.78;;;6.20;99.90;;;;;;4940393;28;20051;-52
2023/12/01 08:14:27;;;;;;;31.52;7.97;;;6.20;99.90;;;;;;4961126;28;20023;-50
2023/12/01 08:16:53;;;;;;;31.05;7.63;;;6.20;99.90;;;;;;4942730;29;20094;-50
2023/12/01 08:19:18;;;;;;;34.22;6.88;;;6.20;99.90;;;;;;4974038;28;20035;-50
2023/12/01 08:21:45;;;;;;;47.33;8.35;;;6.30;99.90;;;;;;4960617;28;20031;-50
2023/12/01 08:24:11;;;;;;;37.22;8.13;;;6.30;99.90;;;;;;4975738;28;20062;-49
2023/12/01 08:26:37;;;;;;;42.17;7.22;;;6.30;99.90;;;;;;4974014;28;20051;-51
2023/12/01 08:29:03;;;;;;;41.90;8.20;;;6.30;99.90;;;;;;4960946;28;20027;-50
2023/12/01 08:31:30;;;;;;;48.28;9.18;;;6.30;99.90;;;;;;4979675;28;20054;-51
2023/12/01 08:33:56;;;;;;;52.22;8.98;;;6.30;99.90;;;;;;4957331;28;20783;-50
2023/12/01 08:36:21;;;;;;;65.47;9.30;;;6.30;99.90;;;;;;4975134;28;20086;-50
2023/12/01 08:38:47;;;;;;;65.18;10.75;;;6.30;99.90;;;;;;4959806;28;20126;-50
2023/12/01 08:41:13;;;;;;;74.07;10.63;;;6.40;99.90;;;;;;4958497;28;20032;-50
2023/12/01 08:43:38;;;;;;;53.85;9.52;;;6.40;99.90;;;;;;4964346;28;20090;-50
2023/12/01 08:46:04;;;;;;;92.00;11.73;;;6.40;99.90;;;;;;4968303;28;20028;-50
2023/12/01 08:48:30;;;;;;;72.40;11.10;;;6.40;99.90;;;;;;4979605;28;20022;-51
2023/12/01 08:50:55;;;;;;;87.60;12.10;;;6.40;99.90;;;;;;4961014;28;20689;-50
2023/12/01 08:53:22;;;;;;;68.18;11.18;;;6.40;99.90;;;;;;4964193;28;20035;-51
2023/12/01 08:55:48;;;;;;;90.30;10.70;;;6.40;99.90;;;;;;4973156;28;20027;-50
2023/12/01 08:58:14;;;;;;;76.07;9.98;;;6.40;99.90;;;;;;4979745;28;20066;-50
2023/12/01 09:00:40;;;;;;;92.22;11.80;;;6.50;99.90;;;;;;4933947;28;20042;-50
2023/12/01 09:03:06;;;;;;;53.97;8.95;;;6.40;99.90;;;;;;4934403;29;20094;-50
2023/12/01 09:05:35;;;;;;;116.65;14.40;;;6.40;99.90;;;;;;4975078;28;20046;-50
2023/12/01 09:08:04;;;;;;;119.63;14.30;;;6.40;99.90;;;;;;4973394;28;20027;-50
2023/12/01 09:10:30;;;;;;;125.30;14.73;;;6.50;99.90;;;;;;4973752;28;20142;-50
2023/12/01 09:12:55;;;;;;;107.28;13.57;;;6.50;99.90;;;;;;4976801;28;20463;-50
2023/12/01 09:15:21;;;;;;;128.30;17.00;;;6.50;99.90;;;;;;4957105;28;20027;-50
2023/12/01 09:17:47;;;;;;;318.23;31.50;;;6.40;99.90;;;;;;4972627;28;20035;-50
2023/12/01 09:20:12;;;;;;;228.63;24.20;;;6.50;99.90;;;;;;4960985;28;20035;-50
2023/12/01 09:22:38;;;;;;;138.50;18.52;;;6.50;99.90;;;;;;4957921;28;20943;-50
2023/12/01 09:25:07;;;;;;;167.48;18.23;;;6.60;99.90;;;;;;4971895;28;20027;-51
2023/12/01 09:27:33;;;;;;;174.35;22.75;;;6.60;99.90;;;;;;4973955;28;20035;-50
2023/12/01 09:29:58;;;;;;;145.45;18.98;;;6.60;99.90;;;;;;4958877;28;20026;-51
2023/12/01 09:32:24;;;;;;;189.68;20.45;;;6.60;99.90;;;;;;4976278;28;20027;-50
2023/12/01 09:34:50;;;;;;;162.43;18.38;;;6.60;99.90;;;;;;4963660;28;20035;-50
2023/12/01 09:37:16;;;;;;;151.00;18.50;;;6.60;99.90;;;;;;4962913;28;20040;-50
2023/12/01 09:39:41;;;;;;;172.80;17.60;;;6.60;99.90;;;;;;4963495;28;20038;-50
2023/12/01 09:42:08;;;;;;;154.00;18.80;;;6.60;99.90;;;;;;4962153;28;20036;-50
2023/12/01 09:44:33;;;;;;;156.30;19.25;;;6.60;99.90;;;;;;4980532;28;20031;-51
2023/12/01 09:47:03;;;;;;;141.40;18.23;;;6.70;99.90;;;;;;4961081;28;20041;-50
2023/12/01 09:49:35;;;;;;;145.32;18.35;;;6.70;99.90;;;;;;4975096;28;20051;-50
2023/12/01 09:52:02;;;;;;;184.93;20.42;;;6.70;99.90;;;;;;4960727;28;20528;-50
2023/12/01 09:54:28;;;;;;;172.68;20.05;;;6.70;99.90;;;;;;4966665;28;20042;-50
2023/12/01 09:56:54;;;;;;;264.73;25.38;;;6.70;99.90;;;;;;4934410;29;20043;-50
2023/12/01 09:59:21;;;;;;;186.02;21.92;;;6.70;99.90;;;;;;4962926;28;20019;-50
2023/12/01 10:01:47;;;;;;;240.88;28.67;;;6.70;99.90;;;;;;4962458;28;20038;-50
2023/12/01 10:04:14;;;;;;;275.45;32.47;;;6.70;99.90;;;;;;4976918;28;20185;-50
2023/12/01 10:06:40;;;;;;;226.23;24.20;;;6.70;99.90;;;;;;4962661;28;20045;-50
2023/12/01 10:09:10;;;;;;;195.35;23.55;;;6.80;99.90;;;;;;4977356;28;20033;-50
2023/12/01 10:11:35;;;;;;;160.90;20.88;;;6.80;99.90;;;;;;4963165;28;20031;-50
2023/12/01 10:14:07;;;;;;;209.30;25.02;;;6.70;99.90;;;;;;4960410;28;20039;-50
2023/12/01 10:16:36;;;;;;;175.35;20.45;;;6.70;99.90;;;;;;4963291;28;20364;-50
2023/12/01 10:19:05;;;;;;;167.75;20.70;;;6.80;99.90;;;;;;4961193;28;20471;-50
2023/12/01 10:21:48;;;;;;;129.45;18.80;;;6.80;99.90;;;;;;4961090;28;20049;-50
2023/12/01 10:24:20;;;;;;;213.75;21.85;;;6.70;99.90;;;;;;4976562;28;20055;-50
2023/12/01 10:26:46;;;;;;;216.00;24.90;;;6.80;99.90;;;;;;4964176;28;20066;-50
2023/12/01 10:29:31;;;;;;;198.43;22.00;;;6.80;99.90;;;;;;4977062;28;20443;-50
2023/12/01 10:32:01;;;;;;;290.75;27.80;;;6.80;99.90;;;;;;4962177;28;20035;-50
2023/12/01 10:34:26;;;;;;;207.15;23.95;;;6.80;99.90;;;;;;4961914;29;20146;-50
2023/12/01 10:36:52;;;;;;;341.70;35.95;;;6.90;99.90;;;;;;4959829;28;20047;-50
2023/12/01 10:39:20;;;;;;;218.75;25.92;;;6.90;99.90;;;;;;4960661;28;20061;-50
2023/12/01 10:41:46;;;;;;;132.00;18.92;;;6.90;99.90;;;;;;4975310;28;20035;-50
2023/12/01 10:44:14;;;;;;;171.93;21.48;;;6.90;99.90;;;;;;4960645;29;20126;-50
2023/12/01 10:46:39;;;;;;;172.35;21.95;;;6.90;99.90;;;;;;4976216;28;20038;-50
2023/12/01 10:49:05;;;;;;;172.50;19.67;;;6.90;99.90;;;;;;4956602;29;20110;-50
2023/12/01 10:51:30;;;;;;;137.32;20.63;;;7.00;99.90;;;;;;4977744;28;20087;-50
2023/12/01 10:53:56;;;;;;;212.98;21.80;;;7.00;99.90;;;;;;4959210;29;20083;-50
2023/12/01 10:56:21;;;;;;;173.68;20.70;;;7.10;99.90;;;;;;4961276;29;20035;-50
2023/12/01 10:58:48;;;;;;;175.32;21.63;;;7.10;99.90;;;;;;4962304;29;20027;-50
2023/12/01 11:01:14;;;;;;;149.15;20.50;;;7.10;99.90;;;;;;4943477;29;20051;-50
2023/12/01 11:03:40;;;;;;;184.60;20.58;;;7.10;99.90;;;;;;4975761;28;20091;-50
2023/12/01 11:06:13;;;;;;;176.40;20.42;;;7.10;99.90;;;;;;4957944;28;20035;-50
2023/12/01 11:08:44;;;;;;;159.88;19.63;;;7.10;99.90;;;;;;4960645;28;20368;-50
2023/12/01 11:11:11;;;;;;;137.55;16.80;;;7.10;99.90;;;;;;4944977;29;20027;-50
2023/12/01 11:14:16;;;;;;;152.80;18.42;;;7.10;99.90;;;;;;4966715;28;20039;-50
2023/12/01 11:16:42;;;;;;;129.43;16.35;;;7.10;99.90;;;;;;4946957;29;20031;-50
2023/12/01 11:19:11;;;;;;;118.57;17.50;;;7.10;99.90;;;;;;4960000;29;20059;-50
2023/12/01 11:21:40;;;;;;;130.00;17.75;;;7.20;99.90;;;;;;4946319;29;20039;-50
2023/12/01 11:24:27;;;;;;;120.82;16.38;;;7.20;99.90;;;;;;4979784;28;20027;-50
2023/12/01 11:26:54;;;;;;;112.53;15.63;;;7.20;99.90;;;;;;4981024;28;20027;-50
2023/12/01 11:29:29;;;;;;;147.70;17.20;;;7.20;99.90;;;;;;4959125;28;20081;-50
2023/12/01 11:31:57;;;;;;;105.90;17.45;;;7.20;99.90;;;;;;4973844;28;20039;-50
2023/12/01 11:34:24;;;;;;;152.15;17.55;;;7.20;99.90;;;;;;4979827;28;20031;-50
2023/12/01 11:36:50;;;;;;;170.23;22.08;;;7.20;99.90;;;;;;4982897;28;20030;-50
2023/12/01 11:39:17;;;;;;;136.55;18.30;;;7.20;99.90;;;;;;4968429;28;20102;-50
2023/12/01 11:41:47;;;;;;;138.75;19.73;;;7.30;99.90;;;;;;4967914;28;20054;-50
2023/12/01 11:44:20;;;;;;;98.10;15.57;;;7.30;99.90;;;;;;4966498;28;20115;-50
2023/12/01 11:46:47;;;;;;;119.82;17.95;;;7.30;99.90;;;;;;4967822;29;20035;-50
2023/12/01 11:49:14;;;;;;;108.18;14.63;;;7.30;99.90;;;;;;4985904;28;20034;-50
2023/12/01 11:51:43;;;;;;;142.90;17.55;;;7.30;99.90;;;;;;4981418;28;20039;-50
2023/12/01 11:54:09;;;;;;;116.05;16.13;;;7.30;99.90;;;;;;4965296;28;20032;-50
2023/12/01 11:56:34;;;;;;;112.05;15.13;;;7.30;99.90;;;;;;4979497;28;20425;-50
2023/12/01 11:59:00;;;;;;;116.60;14.13;;;7.30;99.90;;;;;;4933441;29;20030;-50
2023/12/01 12:01:26;;;;;;;120.10;15.80;;;7.30;99.90;;;;;;4959290;28;20625;-50
2023/12/01 12:03:55;;;;;;;86.78;14.65;;;7.40;99.90;;;;;;4944789;28;20038;-50
2023/12/01 12:06:21;;;;;;;95.65;14.52;;;7.40;99.90;;;;;;4982679;28;20086;-50
2023/12/01 12:08:47;;;;;;;106.90;15.77;;;7.40;99.90;;;;;;4968411;28;20027;-50
2023/12/01 12:11:13;;;;;;;98.60;13.63;;;7.40;99.90;;;;;;4948636;29;20039;-50
2023/12/01 12:13:39;;;;;;;95.25;13.23;;;7.40;99.90;;;;;;4978115;28;20173;-50
2023/12/01 12:16:05;;;;;;;106.15;14.18;;;7.40;99.90;;;;;;4976344;28;20054;-50
2023/12/01 12:18:31;;;;;;;102.38;13.60;;;7.40;99.90;;;;;;4962880;28;20046;-50
2023/12/01 12:21:03;;;;;;;112.78;14.25;;;7.40;99.90;;;;;;4939221;29;20094;-50
2023/12/01 12:23:29;;;;;;;153.32;15.25;;;7.40;99.90;;;;;;4972385;28;20110;-51
2023/12/01 12:26:11;;;;;;;137.88;17.80;;;7.40;99.90;;;;;;4954403;28;20065;-50
2023/12/01 12:28:37;;;;;;;105.95;14.20;;;7.40;99.90;;;;;;4943784;29;20023;-50
2023/12/01 12:31:03;;;;;;;96.32;14.00;;;7.50;99.90;;;;;;4960425;28;20039;-50
2023/12/01 12:33:29;;;;;;;100.30;13.90;;;7.50;99.90;;;;;;4960062;28;20039;-50
2023/12/01 12:35:55;;;;;;;117.97;13.70;;;7.50;99.90;;;;;;4964952;28;20073;-50
2023/12/01 12:38:20;;;;;;;104.88;12.50;;;7.50;99.90;;;;;;4976118;28;20035;-49
2023/12/01 12:40:46;;;;;;;92.85;13.45;;;7.50;99.90;;;;;;4960685;28;20108;-50